TimeEDT,TemperatureF,Dew PointF,Humidity,Sea Level PressureIn,VisibilityMPH,Wind Direction,Wind SpeedMPH,Gust SpeedMPH,PrecipitationIn,Events,Conditions,WindDirDegrees,DateUTC
12:15 AM,64.4,62.6,94,30.36,10.0,SSW,6.9,-,N/A,,Clear,200,2013-08-21 04:15:00
12:35 AM,64.4,62.6,94,30.37,10.0,SSW,6.9,-,N/A,,Clear,210,2013-08-21 04:35:00
12:55 AM,64.4,60.8,88,30.37,10.0,SSW,8.1,-,N/A,,Clear,200,2013-08-21 04:55:00
1:15 AM,64.4,60.8,88,30.37,10.0,SSW,8.1,-,N/A,,Clear,200,2013-08-21 05:15:00
1:35 AM,64.4,62.6,94,30.37,10.0,South,8.1,-,N/A,,Clear,190,2013-08-21 05:35:00
1:55 AM,64.4,62.6,94,30.36,10.0,SSW,4.6,-,N/A,,Clear,210,2013-08-21 05:55:00
2:15 AM,64.4,60.8,88,30.36,10.0,WSW,4.6,-,N/A,,Clear,240,2013-08-21 06:15:00
2:35 AM,62.6,62.6,100,30.36,10.0,West,5.8,-,N/A,,Scattered Clouds,260,2013-08-21 06:35:00
2:55 AM,62.6,62.6,100,30.36,7.0,WSW,6.9,-,N/A,,Scattered Clouds,250,2013-08-21 06:55:00
3:15 AM,64.4,64.4,100,30.35,10.0,SW,9.2,-,N/A,,Mostly Cloudy,230,2013-08-21 07:15:00
3:35 AM,64.4,62.6,94,30.35,10.0,SW,8.1,-,N/A,,Scattered Clouds,230,2013-08-21 07:35:00
3:55 AM,64.4,62.6,94,30.35,10.0,WSW,6.9,-,N/A,,Clear,250,2013-08-21 07:55:00
4:15 AM,62.6,62.6,100,30.35,10.0,South,4.6,-,N/A,,Clear,180,2013-08-21 08:15:00
4:35 AM,62.6,62.6,100,30.34,10.0,SW,4.6,-,N/A,,Clear,220,2013-08-21 08:35:00
4:55 AM,62.6,62.6,100,30.34,10.0,SW,5.8,-,N/A,,Clear,220,2013-08-21 08:55:00
5:15 AM,62.6,62.6,100,30.34,10.0,SW,5.8,-,N/A,,Clear,220,2013-08-21 09:15:00
5:35 AM,62.6,62.6,100,30.35,10.0,WSW,8.1,-,N/A,,Clear,250,2013-08-21 09:35:00
5:55 AM,62.6,62.6,100,30.35,10.0,WSW,6.9,-,N/A,,Clear,250,2013-08-21 09:55:00
6:15 AM,62.6,62.6,100,30.35,10.0,SSW,3.5,-,N/A,,Clear,210,2013-08-21 10:15:00
6:35 AM,60.8,60.8,100,30.36,10.0,WSW,6.9,-,N/A,,Scattered Clouds,250,2013-08-21 10:35:00
6:55 AM,62.6,60.8,94,30.36,10.0,WSW,4.6,-,N/A,,Scattered Clouds,240,2013-08-21 10:55:00
7:15 AM,64.4,62.6,94,30.37,10.0,SSW,3.5,-,N/A,,Scattered Clouds,200,2013-08-21 11:15:00
7:35 AM,64.4,62.6,94,30.38,10.0,SSW,4.6,-,N/A,,Mostly Cloudy,200,2013-08-21 11:35:00
7:55 AM,64.4,62.6,94,30.38,10.0,Calm,Calm,-,N/A,,Scattered Clouds,0,2013-08-21 11:55:00
8:15 AM,64.4,64.4,100,30.39,10.0,South,4.6,-,N/A,,Mostly Cloudy,180,2013-08-21 12:15:00
8:35 AM,64.4,64.4,100,30.39,10.0,South,4.6,-,N/A,,Mostly Cloudy,180,2013-08-21 12:35:00
8:55 AM,64.4,64.4,100,30.38,10.0,South,3.5,-,N/A,,Mostly Cloudy,170,2013-08-21 12:55:00
9:15 AM,66.2,64.4,94,30.38,10.0,Calm,Calm,-,N/A,,Scattered Clouds,0,2013-08-21 13:15:00
9:35 AM,68.0,64.4,88,30.38,10.0,SE,3.5,-,N/A,,Clear,140,2013-08-21 13:35:00
9:55 AM,66.2,66.2,100,30.39,2.0,SSE,4.6,-,N/A,,Mostly Cloudy,150,2013-08-21 13:55:00
10:15 AM,66.2,66.2,100,30.39,7.0,Calm,Calm,-,N/A,,Mostly Cloudy,0,2013-08-21 14:15:00
10:35 AM,68.0,66.2,94,30.39,10.0,Calm,Calm,-,N/A,,Mostly Cloudy,0,2013-08-21 14:35:00
10:55 AM,66.2,66.2,100,30.40,0.2,SE,3.5,-,N/A,Fog,Fog,140,2013-08-21 14:55:00
11:15 AM,66.2,66.2,100,30.40,0.5,SW,3.5,-,N/A,Fog,Fog,220,2013-08-21 15:15:00
11:35 AM,69.8,66.2,88,30.40,10.0,West,4.6,-,N/A,,Mostly Cloudy,280,2013-08-21 15:35:00
11:55 AM,69.8,66.2,88,30.40,10.0,Calm,Calm,-,N/A,,Mostly Cloudy,0,2013-08-21 15:55:00
12:15 PM,68.0,66.2,94,30.40,7.0,WNW,5.8,-,N/A,,Overcast,290,2013-08-21 16:15:00
12:35 PM,69.8,66.2,88,30.39,10.0,West,5.8,-,N/A,,Mostly Cloudy,280,2013-08-21 16:35:00
12:55 PM,69.8,66.2,88,30.39,10.0,Calm,Calm,-,N/A,,Mostly Cloudy,0,2013-08-21 16:55:00
1:15 PM,71.6,66.2,83,30.38,10.0,Calm,Calm,-,N/A,,Mostly Cloudy,0,2013-08-21 17:15:00
1:35 PM,69.8,68.0,94,30.37,10.0,SSE,5.8,-,N/A,,Mostly Cloudy,160,2013-08-21 17:35:00
1:55 PM,69.8,66.2,88,30.37,10.0,SSW,4.6,-,N/A,,Mostly Cloudy,200,2013-08-21 17:55:00
2:15 PM,69.8,68.0,94,30.36,10.0,South,3.5,-,N/A,,Scattered Clouds,180,2013-08-21 18:15:00
2:35 PM,69.8,66.2,88,30.36,10.0,South,6.9,-,N/A,,Scattered Clouds,190,2013-08-21 18:35:00
2:55 PM,69.8,66.2,88,30.35,10.0,South,4.6,-,N/A,,Scattered Clouds,170,2013-08-21 18:55:00
3:15 PM,69.8,68.0,94,30.34,10.0,South,4.6,-,N/A,,Mostly Cloudy,170,2013-08-21 19:15:00
3:35 PM,71.6,68.0,88,30.33,10.0,South,8.1,-,N/A,,Scattered Clouds,170,2013-08-21 19:35:00
3:55 PM,71.6,68.0,88,30.33,10.0,South,5.8,-,N/A,Thunderstorm,Mostly Cloudy,190,2013-08-21 19:55:00
4:15 PM,71.6,66.2,83,30.32,10.0,Calm,Calm,-,N/A,,Mostly Cloudy,0,2013-08-21 20:15:00
4:35 PM,71.6,66.2,83,30.32,10.0,WSW,4.6,-,N/A,Thunderstorm,Mostly Cloudy,240,2013-08-21 20:35:00
4:55 PM,69.8,68.0,94,30.33,10.0,SSW,3.5,-,N/A,,Overcast,210,2013-08-21 20:55:00
5:15 PM,71.6,68.0,88,30.32,10.0,South,5.8,-,N/A,,Overcast,180,2013-08-21 21:15:00
5:35 PM,69.8,68.0,94,30.32,10.0,South,6.9,-,N/A,,Overcast,180,2013-08-21 21:35:00
5:55 PM,69.8,68.0,94,30.31,10.0,South,3.5,-,N/A,Thunderstorm,Thunderstorm,170,2013-08-21 21:55:00
6:15 PM,66.2,66.2,100,30.31,10.0,SSE,5.8,-,N/A,,Overcast,160,2013-08-21 22:15:00
6:35 PM,66.2,64.4,94,30.32,10.0,North,4.6,-,N/A,,Overcast,350,2013-08-21 22:35:00
6:55 PM,66.2,64.4,94,30.32,10.0,Calm,Calm,-,N/A,Thunderstorm,Overcast,0,2013-08-21 22:55:00
7:15 PM,66.2,64.4,94,30.31,10.0,East,3.5,-,N/A,Thunderstorm,Mostly Cloudy,100,2013-08-21 23:15:00
7:35 PM,66.2,64.4,94,30.31,0.5,East,3.5,-,N/A,Rain,Light Rain,100,2013-08-21 23:35:00
7:55 PM,64.4,64.4,100,30.31,0.2,ESE,4.6,-,N/A,Fog,Fog,120,2013-08-21 23:55:00
8:15 PM,64.4,64.4,100,30.31,0.2,Calm,Calm,-,N/A,Fog,Fog,0,2013-08-22 00:15:00
8:35 PM,64.4,64.4,100,30.32,1.5,Calm,Calm,-,N/A,,Overcast,0,2013-08-22 00:35:00
8:55 PM,64.4,64.4,100,30.32,4.0,Calm,Calm,-,N/A,,Mostly Cloudy,0,2013-08-22 00:55:00
9:15 PM,64.4,64.4,100,30.31,0.8,Calm,Calm,-,N/A,,Overcast,0,2013-08-22 01:15:00
9:35 PM,64.4,64.4,100,30.32,10.0,WSW,3.5,-,N/A,,Scattered Clouds,240,2013-08-22 01:35:00
9:55 PM,64.4,64.4,100,30.32,10.0,SW,4.6,-,N/A,,Clear,220,2013-08-22 01:55:00
10:15 PM,66.2,66.2,100,30.32,10.0,SW,5.8,-,N/A,,Scattered Clouds,220,2013-08-22 02:15:00
10:35 PM,66.2,66.2,100,30.33,10.0,SSW,5.8,-,N/A,,Drizzle,210,2013-08-22 02:35:00
10:55 PM,66.2,64.4,94,30.32,10.0,WSW,6.9,-,N/A,Rain,Light Rain,240,2013-08-22 02:55:00
11:15 PM,66.2,66.2,100,30.33,1.0,SW,5.8,-,N/A,,Overcast,230,2013-08-22 03:15:00
11:35 PM,64.4,64.4,100,30.33,0.2,WNW,6.9,-,N/A,Fog,Fog,300,2013-08-22 03:35:00
11:55 PM,62.6,62.6,100,30.32,0.2,WNW,9.2,-,N/A,,Drizzle,290,2013-08-22 03:55:00